createdAt,value
2022-11-07T00:01:51.765Z,81.28
2022-11-07T00:04:18.817Z,81.27
2022-11-07T00:06:46.832Z,81.20
2022-11-07T00:09:14.223Z,80.98
2022-11-07T00:11:41.174Z,80.81
2022-11-07T00:14:08.240Z,80.54
2022-11-07T00:16:35.592Z,80.92
2022-11-07T00:19:02.582Z,80.72
2022-11-07T00:21:29.543Z,80.51
2022-11-07T00:23:56.610Z,79.84
2022-11-07T00:26:23.593Z,80.19
2022-11-07T00:28:50.744Z,79.92
2022-11-07T00:31:18.722Z,80.20
2022-11-07T00:33:47.640Z,79.93
2022-11-07T00:36:26.727Z,80.19
2022-11-07T00:38:55.804Z,80.29
2022-11-07T00:41:23.221Z,80.20
2022-11-07T00:43:50.431Z,80.33
2022-11-07T00:46:18.371Z,80.37
2022-11-07T00:48:46.260Z,80.64
2022-11-07T00:51:22.953Z,80.10
2022-11-07T00:53:50.526Z,80.20
2022-11-07T00:56:21.483Z,79.69
2022-11-07T00:58:48.896Z,80.20
2022-11-07T01:01:20.415Z,80.03
2022-11-07T01:04:08.991Z,79.90
2022-11-07T01:06:38.752Z,80.59
2022-11-07T01:09:08.604Z,80.63
2022-11-07T01:11:38.145Z,80.28
2022-11-07T01:14:05.441Z,80.39
2022-11-07T01:16:35.811Z,79.94
2022-11-07T01:19:04.273Z,79.80
2022-11-07T01:21:31.470Z,79.92
2022-11-07T01:23:58.587Z,80.04
2022-11-07T01:26:25.552Z,79.97
2022-11-07T01:28:52.529Z,79.91
2022-11-07T01:31:19.554Z,79.57
2022-11-07T01:33:46.908Z,79.70
2022-11-07T01:36:16.887Z,80.29
2022-11-07T01:38:46.561Z,80.59
2022-11-07T01:41:21.583Z,80.33
2022-11-07T01:43:51.524Z,80.55
2022-11-07T01:46:19.471Z,80.67
2022-11-07T01:48:59.570Z,80.67
2022-11-07T01:51:28.592Z,80.39
2022-11-07T01:53:56.447Z,80.77
2022-11-07T01:56:28.334Z,80.73
2022-11-07T01:58:56.826Z,80.27
2022-11-07T02:01:24.092Z,80.62
2022-11-07T02:03:52.434Z,80.57
2022-11-07T02:06:36.044Z,80.41
2022-11-07T02:09:03.167Z,80.37
2022-11-07T02:11:30.295Z,79.83
2022-11-07T02:13:57.492Z,80.13
2022-11-07T02:16:24.487Z,80.24
2022-11-07T02:18:51.626Z,80.01
2022-11-07T02:21:45.225Z,80.42
2022-11-07T02:24:35.857Z,80.56
2022-11-07T02:27:08.523Z,80.76
2022-11-07T02:29:37.294Z,80.57
2022-11-07T02:32:10.383Z,80.61
2022-11-07T02:34:37.806Z,80.21
2022-11-07T02:37:10.535Z,80.84
2022-11-07T02:39:38.116Z,81.08
2022-11-07T02:42:07.005Z,80.89
2022-11-07T02:44:34.481Z,80.90
2022-11-07T02:47:01.759Z,80.69
2022-11-07T02:49:28.804Z,81.25
2022-11-07T02:51:55.901Z,80.96
2022-11-07T02:54:23.097Z,81.10
2022-11-07T02:56:50.489Z,80.85
2022-11-07T02:59:17.412Z,81.18
2022-11-07T03:01:44.718Z,81.00
2022-11-07T03:04:11.781Z,80.65
2022-11-07T03:06:38.709Z,81.08
2022-11-07T03:09:05.693Z,80.92
2022-11-07T03:11:32.903Z,80.81
2022-11-07T03:13:59.852Z,81.06
2022-11-07T03:16:26.839Z,81.32
2022-11-07T03:18:53.801Z,82.13
2022-11-07T03:21:20.778Z,81.84
2022-11-07T03:23:47.769Z,81.79
2022-11-07T03:26:15.819Z,81.51
2022-11-07T03:28:42.738Z,81.50
2022-11-07T03:31:09.840Z,82.09
2022-11-07T03:33:37.773Z,81.82
2022-11-07T03:36:05.264Z,81.42
2022-11-07T03:38:32.320Z,82.09
2022-11-07T03:40:59.300Z,81.95
2022-11-07T03:43:26.275Z,81.92
2022-11-07T03:45:53.200Z,81.88
2022-11-07T03:48:20.230Z,81.24
2022-11-07T03:50:47.198Z,81.83
2022-11-07T03:53:14.296Z,81.92
2022-11-07T03:55:43.376Z,82.20
2022-11-07T03:58:10.347Z,82.03
2022-11-07T04:00:37.275Z,82.15
2022-11-07T04:03:04.816Z,81.83
2022-11-07T04:05:31.836Z,82.15
2022-11-07T04:07:58.741Z,82.41
2022-11-07T04:10:25.599Z,82.62
2022-11-07T04:13:12.366Z,82.25
2022-11-07T04:15:59.097Z,82.49
2022-11-07T04:18:27.004Z,82.62
2022-11-07T04:20:53.961Z,82.87
2022-11-07T04:23:21.257Z,83.07
2022-11-07T04:26:06.654Z,83.08
2022-11-07T04:28:33.563Z,82.74
2022-11-07T04:31:00.995Z,82.96
2022-11-07T04:33:27.980Z,83.28
2022-11-07T04:35:54.977Z,83.20
2022-11-07T04:38:22.081Z,83.56
2022-11-07T04:40:56.253Z,83.50
2022-11-07T04:43:25.498Z,83.36
2022-11-07T04:45:53.098Z,83.32
2022-11-07T04:48:20.101Z,83.14
2022-11-07T04:50:47.093Z,83.06
2022-11-07T04:53:16.509Z,83.57
2022-11-07T04:55:44.172Z,83.35
2022-11-07T04:58:11.480Z,83.21
2022-11-07T05:00:38.699Z,83.59
2022-11-07T05:03:05.857Z,83.26
2022-11-07T05:05:32.856Z,83.82
2022-11-07T05:07:59.890Z,83.98
2022-11-07T05:10:28.864Z,83.81
2022-11-07T05:12:56.943Z,83.86
2022-11-07T05:15:24.640Z,83.97
2022-11-07T05:17:51.668Z,83.82
2022-11-07T05:20:32.730Z,83.79
2022-11-07T05:23:22.346Z,84.02
2022-11-07T05:25:50.879Z,83.87
2022-11-07T05:28:30.049Z,84.11
2022-11-07T05:31:03.122Z,83.84
2022-11-07T05:33:30.140Z,83.79
2022-11-07T05:35:57.857Z,83.92
2022-11-07T05:38:25.993Z,83.96
2022-11-07T05:40:52.953Z,83.62
2022-11-07T05:43:19.947Z,83.71
2022-11-07T05:45:46.944Z,84.20
2022-11-07T05:48:14.517Z,84.33
2022-11-07T05:50:42.215Z,84.00
2022-11-07T05:53:09.338Z,83.68
2022-11-07T05:55:36.510Z,83.62
2022-11-07T05:58:12.032Z,84.16
2022-11-07T06:00:40.334Z,84.33
2022-11-07T06:03:08.139Z,83.35
2022-11-07T06:05:35.187Z,84.18
2022-11-07T06:08:02.132Z,83.82
2022-11-07T06:10:29.165Z,83.88
2022-11-07T06:13:00.906Z,83.98
2022-11-07T06:15:29.342Z,84.09
2022-11-07T06:17:56.513Z,84.07
2022-11-07T06:20:23.475Z,83.78
2022-11-07T06:22:50.442Z,83.89
2022-11-07T06:25:17.358Z,83.58
2022-11-07T06:27:44.697Z,83.71
2022-11-07T06:30:12.193Z,84.17
2022-11-07T06:32:44.511Z,84.17
2022-11-07T06:35:13.043Z,83.67
2022-11-07T06:37:40.004Z,83.50
2022-11-07T06:40:07.620Z,83.51
2022-11-07T06:42:34.566Z,83.51
2022-11-07T06:45:01.496Z,83.43
2022-11-07T06:47:28.477Z,83.57
2022-11-07T06:49:55.798Z,83.53
2022-11-07T06:52:22.825Z,83.69
2022-11-07T06:54:49.736Z,83.70
2022-11-07T06:57:16.780Z,83.60
2022-11-07T06:59:47.657Z,83.55
2022-11-07T07:02:37.260Z,83.26
2022-11-07T07:05:05.756Z,83.63
2022-11-07T07:07:35.125Z,83.36
2022-11-07T07:10:02.046Z,83.54
2022-11-07T07:12:28.996Z,83.58
2022-11-07T07:14:55.949Z,83.17
2022-11-07T07:17:23.334Z,83.25
2022-11-07T07:19:50.290Z,83.07
2022-11-07T07:22:17.829Z,83.15
2022-11-07T07:24:45.165Z,82.99
2022-11-07T07:27:12.146Z,83.32
2022-11-07T07:29:39.124Z,83.29
2022-11-07T07:32:06.080Z,83.45
2022-11-07T07:34:32.918Z,83.21
2022-11-07T07:36:59.860Z,83.03
2022-11-07T07:39:28.408Z,83.21
2022-11-07T07:41:55.370Z,83.03
2022-11-07T07:44:22.321Z,83.06
2022-11-07T07:46:49.586Z,82.97
2022-11-07T07:49:16.571Z,83.09
2022-11-07T07:51:43.531Z,82.58
2022-11-07T07:54:14.110Z,82.43
2022-11-07T07:56:41.138Z,82.19
2022-11-07T07:59:08.084Z,82.49
2022-11-07T08:01:35.113Z,82.04
2022-11-07T08:04:02.925Z,82.24
2022-11-07T08:06:30.915Z,82.01
2022-11-07T08:08:57.877Z,81.73
2022-11-07T08:11:24.839Z,81.59
2022-11-07T08:13:51.798Z,81.68
2022-11-07T08:16:19.145Z,81.41
2022-11-07T08:18:46.052Z,81.14
2022-11-07T08:21:13.019Z,80.82
2022-11-07T08:23:39.959Z,80.59
2022-11-07T08:26:07.320Z,80.75
2022-11-07T08:28:36.134Z,80.14
2022-11-07T08:31:09.704Z,80.55
2022-11-07T08:33:37.406Z,80.48
2022-11-07T08:36:06.155Z,80.19
2022-11-07T08:38:35.068Z,80.15
2022-11-07T08:41:02.089Z,79.70
2022-11-07T08:43:29.627Z,80.13
2022-11-07T08:45:57.230Z,79.76
2022-11-07T08:48:24.591Z,79.78
2022-11-07T08:50:55.786Z,79.61
2022-11-07T08:53:24.282Z,79.94
2022-11-07T08:55:51.502Z,79.54
2022-11-07T08:58:19.657Z,79.72
2022-11-07T09:00:46.849Z,79.55
2022-11-07T09:06:01.588Z,80.02
2022-11-07T09:08:28.594Z,79.62
2022-11-07T09:10:55.585Z,80.15
2022-11-07T09:13:22.551Z,79.56
2022-11-07T09:15:51.276Z,79.90
2022-11-07T09:18:19.620Z,80.08
2022-11-07T09:20:46.807Z,80.13
2022-11-07T09:23:14.007Z,79.63
2022-11-07T09:25:41.255Z,80.12
2022-11-07T09:28:08.768Z,80.13
2022-11-07T09:30:35.857Z,79.56
2022-11-07T09:33:02.847Z,79.46
2022-11-07T09:35:29.811Z,79.50
2022-11-07T09:37:57.007Z,79.70
2022-11-07T09:40:24.907Z,79.06
2022-11-07T09:42:54.648Z,78.62
2022-11-07T09:45:21.638Z,78.19
2022-11-07T09:48:01.475Z,78.06
2022-11-07T09:50:42.524Z,77.96
2022-11-07T09:53:30.636Z,78.31
2022-11-07T09:56:04.450Z,77.51
2022-11-07T09:58:38.165Z,77.76
2022-11-07T10:01:10.556Z,77.68
2022-11-07T10:03:39.247Z,77.05
2022-11-07T10:06:32.369Z,77.02
2022-11-07T10:09:17.257Z,76.46
2022-11-07T10:11:54.542Z,76.20
2022-11-07T10:14:49.394Z,75.74
2022-11-07T10:17:28.713Z,75.53
2022-11-07T10:20:45.150Z,75.35
2022-11-07T10:23:24.780Z,75.32
2022-11-07T10:26:20.196Z,74.85
2022-11-07T10:29:18.278Z,74.71
2022-11-07T10:31:55.255Z,74.88
2022-11-07T10:34:31.885Z,74.53
2022-11-07T10:36:58.827Z,74.55
2022-11-07T10:39:25.939Z,74.78
2022-11-07T10:42:04.386Z,74.39
2022-11-07T10:44:32.265Z,74.55
2022-11-07T10:46:59.252Z,74.63
2022-11-07T10:49:32.257Z,74.28
2022-11-07T10:52:17.137Z,74.04
2022-11-07T10:54:45.343Z,74.48
2022-11-07T10:57:17.020Z,73.77
2022-11-07T10:59:52.774Z,74.22
2022-11-07T11:02:46.296Z,73.71
2022-11-07T11:05:43.628Z,73.37
2022-11-07T11:08:18.658Z,72.33
2022-11-07T11:10:47.165Z,73.15
2022-11-07T11:13:28.640Z,72.82
2022-11-07T11:16:08.724Z,71.58
2022-11-07T11:18:37.084Z,72.32
2022-11-07T11:21:06.345Z,72.23
2022-11-07T11:23:37.538Z,71.99
2022-11-07T11:26:14.488Z,71.85
2022-11-07T11:29:06.371Z,71.67
2022-11-07T11:31:37.522Z,71.12
2022-11-07T11:34:15.949Z,70.57
2022-11-07T11:36:51.903Z,71.17
2022-11-07T11:39:29.915Z,69.50
2022-11-07T11:42:00.741Z,70.70
2022-11-07T11:44:35.547Z,70.07
2022-11-07T11:47:16.745Z,70.38
2022-11-07T11:50:01.131Z,70.04
2022-11-07T11:52:32.078Z,69.70
2022-11-07T11:55:00.773Z,70.49
2022-11-07T11:57:49.193Z,68.75
2022-11-07T12:00:19.228Z,67.97
2022-11-07T12:02:55.176Z,69.07
2022-11-07T12:05:46.699Z,66.85
2022-11-07T12:08:16.366Z,67.75
2022-11-07T12:11:14.368Z,66.95
2022-11-07T12:14:02.815Z,66.40
2022-11-07T12:16:55.642Z,65.87
2022-11-07T12:19:48.818Z,65.34
2022-11-07T12:22:45.295Z,65.67
2022-11-07T12:25:39.163Z,64.56
2022-11-07T12:28:21.309Z,66.20
2022-11-07T12:30:57.716Z,65.00
2022-11-07T12:33:48.052Z,65.54
2022-11-07T12:36:35.107Z,65.95
2022-11-07T12:39:28.266Z,65.43
2022-11-07T12:42:05.845Z,65.47
2022-11-07T12:44:44.964Z,64.27
2022-11-07T12:47:27.244Z,64.98
2022-11-07T12:50:14.438Z,64.06
2022-11-07T12:52:41.363Z,64.05
2022-11-07T12:55:23.927Z,63.74
2022-11-07T12:57:54.811Z,63.75
2022-11-07T13:00:29.198Z,63.31
2022-11-07T13:03:17.981Z,62.86
2022-11-07T13:06:06.518Z,62.86
2022-11-07T13:08:45.685Z,63.50
2022-11-07T13:11:26.182Z,64.61
2022-11-07T13:14:09.616Z,65.00
2022-11-07T13:16:37.724Z,63.91
2022-11-07T13:19:21.473Z,63.66
2022-11-07T13:22:03.094Z,63.07
2022-11-07T13:24:31.604Z,63.11
2022-11-07T13:27:00.006Z,63.39
2022-11-07T13:29:36.065Z,62.10
2022-11-07T13:32:12.411Z,62.45
2022-11-07T13:34:49.522Z,63.06
2022-11-07T13:37:32.730Z,63.52
2022-11-07T13:40:11.637Z,63.00
2022-11-07T13:42:41.862Z,63.68
2022-11-07T13:45:32.359Z,63.35
2022-11-07T13:48:03.739Z,64.45
2022-11-07T13:50:40.861Z,64.82
2022-11-07T13:53:30.957Z,64.26
2022-11-07T13:56:03.970Z,64.46
2022-11-07T13:58:34.818Z,64.83
2022-11-07T14:01:10.754Z,63.51
2022-11-07T14:03:38.461Z,64.36
2022-11-07T14:06:06.603Z,64.27
2022-11-07T14:08:40.332Z,63.64
2022-11-07T14:11:23.477Z,63.77
2022-11-07T14:13:55.142Z,64.59
2022-11-07T14:16:27.655Z,63.90
2022-11-07T14:19:01.644Z,64.11
2022-11-07T14:21:32.819Z,64.18
2022-11-07T14:24:00.158Z,64.53
2022-11-07T14:26:34.408Z,64.73
2022-11-07T14:29:03.151Z,64.15
2022-11-07T14:31:38.376Z,65.05
2022-11-07T14:34:14.305Z,65.73
2022-11-07T14:36:52.920Z,65.44
2022-11-07T14:39:22.829Z,66.20
2022-11-07T14:41:51.200Z,66.06
2022-11-07T14:44:28.521Z,65.60
2022-11-07T14:47:04.017Z,65.86
2022-11-07T14:49:41.875Z,66.55
2022-11-07T14:52:28.046Z,66.27
2022-11-07T14:55:07.101Z,66.86
2022-11-07T14:57:37.186Z,66.41
2022-11-07T15:00:17.614Z,66.16
2022-11-07T15:02:47.642Z,67.04
2022-11-07T15:05:36.139Z,67.36
2022-11-07T15:08:03.130Z,66.64
2022-11-07T15:10:36.395Z,66.96
2022-11-07T15:13:06.347Z,67.19
2022-11-07T15:15:36.246Z,66.75
2022-11-07T15:18:07.779Z,66.93
2022-11-07T15:20:38.521Z,66.56
2022-11-07T15:23:14.641Z,66.86
2022-11-07T15:25:52.498Z,66.82
2022-11-07T15:28:28.440Z,66.92
2022-11-07T15:30:58.333Z,67.32
2022-11-07T15:33:27.062Z,67.25
2022-11-07T15:35:57.875Z,67.85
2022-11-07T15:38:26.598Z,67.03
2022-11-07T15:40:53.819Z,67.14
2022-11-07T15:43:21.428Z,67.22
2022-11-07T15:45:51.289Z,67.87
2022-11-07T15:48:21.157Z,68.03
2022-11-07T15:50:50.140Z,68.21
2022-11-07T15:53:26.361Z,67.82
2022-11-07T15:56:01.717Z,68.05
2022-11-07T15:58:30.485Z,68.18
2022-11-07T16:00:59.075Z,67.92
2022-11-07T16:03:27.641Z,67.80
2022-11-07T16:05:58.545Z,67.63
2022-11-07T16:08:25.960Z,67.20
2022-11-07T16:11:01.808Z,66.58
2022-11-07T16:13:29.335Z,68.15
2022-11-07T16:15:59.874Z,67.79
2022-11-07T16:18:27.768Z,68.02
2022-11-07T16:20:54.707Z,68.23
2022-11-07T16:23:22.063Z,68.61
2022-11-07T16:25:51.366Z,68.05
2022-11-07T16:28:21.305Z,68.21
2022-11-07T16:30:48.269Z,68.33
2022-11-07T16:33:15.216Z,68.69
2022-11-07T16:35:43.387Z,68.33
2022-11-07T16:38:16.069Z,68.49
2022-11-07T16:40:43.987Z,68.72
2022-11-07T16:43:10.968Z,68.52
2022-11-07T16:45:43.802Z,68.13
2022-11-07T16:48:20.737Z,68.50
2022-11-07T16:50:48.150Z,67.79
2022-11-07T16:53:15.889Z,68.30
2022-11-07T16:55:50.788Z,68.34
2022-11-07T16:58:39.429Z,68.95
2022-11-07T17:01:06.815Z,68.44
2022-11-07T17:03:34.232Z,68.86
2022-11-07T17:06:02.879Z,68.88
2022-11-07T17:08:41.528Z,68.54
2022-11-07T17:11:08.829Z,68.80
2022-11-07T17:13:35.760Z,69.14
2022-11-07T17:16:02.767Z,69.06
2022-11-07T17:18:29.674Z,69.08
2022-11-07T17:20:57.253Z,69.41
2022-11-07T17:23:29.862Z,68.87
2022-11-07T17:26:00.497Z,69.25
2022-11-07T17:28:27.428Z,69.51
2022-11-07T17:30:54.340Z,68.99
2022-11-07T17:33:21.399Z,69.85
2022-11-07T17:35:54.128Z,69.76
2022-11-07T17:38:21.252Z,69.49
2022-11-07T17:40:48.343Z,69.63
2022-11-07T17:43:15.290Z,69.92
2022-11-07T17:45:42.451Z,70.23
2022-11-07T17:48:10.933Z,70.13
2022-11-07T17:50:38.469Z,70.49
2022-11-07T17:53:05.902Z,69.86
2022-11-07T17:55:32.847Z,69.88
2022-11-07T17:57:59.874Z,70.06
2022-11-07T18:00:28.074Z,70.12
2022-11-07T18:02:55.462Z,70.12
2022-11-07T18:05:26.437Z,70.37
2022-11-07T18:07:55.795Z,70.33
2022-11-07T18:10:22.725Z,70.26
2022-11-07T18:12:49.809Z,70.24
2022-11-07T18:15:17.000Z,70.53
2022-11-07T18:17:44.363Z,69.87
2022-11-07T18:20:11.954Z,70.46
2022-11-07T18:22:40.699Z,70.56
2022-11-07T18:25:09.242Z,70.11
2022-11-07T18:27:36.770Z,70.43
2022-11-07T18:30:05.720Z,70.70
2022-11-07T18:32:36.208Z,70.62
2022-11-07T18:35:05.180Z,70.66
2022-11-07T18:37:32.534Z,70.76
2022-11-07T18:39:59.453Z,70.12
2022-11-07T18:42:26.397Z,70.83
2022-11-07T18:44:53.483Z,70.21
2022-11-07T18:47:21.174Z,70.72
2022-11-07T18:49:51.495Z,70.74
2022-11-07T18:52:21.205Z,70.70
2022-11-07T18:54:48.117Z,70.79
2022-11-07T18:57:17.036Z,71.12
2022-11-07T18:59:44.085Z,70.71
2022-11-07T19:02:11.183Z,71.00
2022-11-07T19:04:38.215Z,71.08
2022-11-07T19:07:05.151Z,71.20
2022-11-07T19:09:33.711Z,71.25
2022-11-07T19:12:01.537Z,71.43
2022-11-07T19:14:30.161Z,71.75
2022-11-07T19:16:57.889Z,71.60
2022-11-07T19:19:25.312Z,72.05
2022-11-07T19:21:52.656Z,71.93
2022-11-07T19:24:19.926Z,72.56
2022-11-07T19:26:47.378Z,72.70
2022-11-07T19:29:14.336Z,72.85
2022-11-07T19:31:41.290Z,73.04
2022-11-07T19:34:08.422Z,72.67
2022-11-07T19:36:37.320Z,73.24
2022-11-07T19:39:04.803Z,72.95
2022-11-07T19:41:31.781Z,73.08
2022-11-07T19:44:02.010Z,73.30
2022-11-07T19:46:28.997Z,72.98
2022-11-07T19:48:56.697Z,73.16
2022-11-07T19:51:24.500Z,73.72
2022-11-07T19:53:59.490Z,73.91
2022-11-07T19:56:28.593Z,73.85
2022-11-07T19:58:55.776Z,73.07
2022-11-07T20:01:27.162Z,73.69
2022-11-07T20:03:55.752Z,73.33
2022-11-07T20:06:28.877Z,73.45
2022-11-07T20:08:55.853Z,73.25
2022-11-07T20:11:25.250Z,73.51
2022-11-07T20:13:54.742Z,73.99
2022-11-07T20:16:23.717Z,73.46
2022-11-07T20:18:51.177Z,73.64
2022-11-07T20:21:21.963Z,73.43
2022-11-07T20:23:49.879Z,73.70
2022-11-07T20:26:20.082Z,73.51
2022-11-07T20:28:49.851Z,73.64
2022-11-07T20:31:23.041Z,74.16
2022-11-07T20:33:50.234Z,74.06
2022-11-07T20:36:18.557Z,74.27
2022-11-07T20:38:46.187Z,74.67
2022-11-07T20:41:13.924Z,74.52
2022-11-07T20:43:41.418Z,74.83
2022-11-07T20:46:15.308Z,74.86
2022-11-07T20:48:43.247Z,74.80
2022-11-07T20:51:15.095Z,74.79
2022-11-07T20:53:49.502Z,74.83
2022-11-07T20:56:18.215Z,75.15
2022-11-07T20:58:45.654Z,75.33
2022-11-07T21:01:21.600Z,75.25
2022-11-07T21:03:49.087Z,75.53
2022-11-07T21:06:16.738Z,75.49
2022-11-07T21:08:46.868Z,74.73
2022-11-07T21:11:15.011Z,75.71
2022-11-07T21:13:46.601Z,75.58
2022-11-07T21:16:18.944Z,75.67
2022-11-07T21:18:45.927Z,75.52
2022-11-07T21:21:19.075Z,75.56
2022-11-07T21:23:47.121Z,75.48
2022-11-07T21:26:22.660Z,75.25
2022-11-07T21:28:50.590Z,75.54
2022-11-07T21:31:24.001Z,75.41
2022-11-07T21:33:52.219Z,75.36
2022-11-07T21:36:22.084Z,75.04
2022-11-07T21:38:49.245Z,75.77
2022-11-07T21:41:17.171Z,76.36
2022-11-07T21:43:44.442Z,76.35
2022-11-07T21:46:18.014Z,76.57
2022-11-07T21:48:46.271Z,76.19
2022-11-07T21:51:19.722Z,75.72
2022-11-07T21:53:48.531Z,75.79
2022-11-07T21:56:25.452Z,76.29
2022-11-07T21:58:54.821Z,76.33
2022-11-07T22:01:22.539Z,76.18
2022-11-07T22:04:06.195Z,76.53
2022-11-07T22:06:37.410Z,76.92
2022-11-07T22:09:06.492Z,76.77
2022-11-07T22:11:33.674Z,76.65
2022-11-07T22:14:01.124Z,76.75
2022-11-07T22:16:28.242Z,76.90
2022-11-07T22:18:55.471Z,76.80
2022-11-07T22:21:23.605Z,77.00
2022-11-07T22:23:51.400Z,76.64
2022-11-07T22:26:27.048Z,77.27
2022-11-07T22:28:54.757Z,77.49
2022-11-07T22:31:32.647Z,77.61
2022-11-07T22:34:01.110Z,77.35
2022-11-07T22:36:29.109Z,77.78
2022-11-07T22:38:58.153Z,77.81
2022-11-07T22:41:27.432Z,77.54
2022-11-07T22:43:55.372Z,77.79
2022-11-07T22:46:24.857Z,77.73
2022-11-07T22:48:52.812Z,77.61
2022-11-07T22:51:25.274Z,77.59
2022-11-07T22:54:03.047Z,77.69
2022-11-07T22:56:30.907Z,77.72
2022-11-07T22:58:57.992Z,77.30
2022-11-07T23:01:34.441Z,77.66
2022-11-07T23:04:02.052Z,78.33
2022-11-07T23:06:30.267Z,78.10
2022-11-07T23:08:58.362Z,77.78
2022-11-07T23:11:48.277Z,78.06
2022-11-07T23:14:20.952Z,78.60
2022-11-07T23:16:50.264Z,78.41
2022-11-07T23:19:20.024Z,77.82
2022-11-07T23:21:47.270Z,78.09
2022-11-07T23:24:14.569Z,77.80
2022-11-07T23:26:41.881Z,77.87
2022-11-07T23:29:20.796Z,77.18
2022-11-07T23:31:50.077Z,77.56
2022-11-07T23:34:18.448Z,77.64
2022-11-07T23:36:50.143Z,77.48
2022-11-07T23:39:20.551Z,77.05
2022-11-07T23:41:47.684Z,77.06
2022-11-07T23:44:15.976Z,77.29
2022-11-07T23:47:01.779Z,76.70
2022-11-07T23:49:54.964Z,77.20
2022-11-07T23:52:22.138Z,77.47
2022-11-07T23:55:07.904Z,77.61
2022-11-07T23:57:56.557Z,77.24
